PWSweather.com
Personal Weather Stations
Station Observations
REBOX73
Petalia At Mount Pantokrator, CorfuGR 49081

Petalia At Mount PantokratorCorfuGR 49081

Lat: 39.747915, Lon: 19.841466

Elevation: 2132

Station Type: ws1080

http://pantokratoras-kerkyra.meteoclub.gr/

Latest ConditionsUpdated 5:45:01 AM GMT+01:01 Wednesday, Jul 1, 2015
Currently Today's Max Today's Min Today's Average
Temperature 62.4°F16.9°C 63.1°F17.3°C 60.8°F16.0°C 61.9°F16.6°C
Dew Point 53.3°F11.8°C 53.4°F11.9°C 51.1°F10.6°C 52.2°F11.2°C
Winds 1.5 mph SSE2.4 kmh SSE 3.2 mph E5.1 kmh E - 1.7 mph 2.7 kmh
Wind Gusts 2.2 mph3.5 kmh 6.0 mph9.7 kmh - -
Humidity 72% 73% 66% 70%
Pressure 30.08 in1018.6 mb 30.08 in1018.6 mb 30.07 in1018.3 mb -
Hour Temp Dew Point Humidity Winds Wind Gusts Pressure Precip Precip Rate Daily Precip Total
05:45 AM 62.4°F16.9°C 53.3°F11.8°C 72% 1.5 mph SSE2.4 kmh SSE 2.2 mph3.5 kmh 30.08 in1018.6 mb 0.00 in0.0 mm 0.00 in0.0 mm 0.00 in0.0 mm
05:30 AM 62.6°F17.0°C 53.1°F11.7°C 71% 1.5 mph WSW2.4 kmh WSW 3.1 mph5.0 kmh 30.08 in1018.6 mb 0.00 in0.0 mm 0.00 in0.0 mm 0.00 in0.0 mm
05:15 AM 63.1°F17.3°C 52.4°F11.3°C 68% 1.6 mph SW2.6 kmh SW 4.5 mph7.2 kmh 30.08 in1018.6 mb 0.00 in0.0 mm 0.00 in0.0 mm 0.00 in0.0 mm
05:00 AM 61.9°F16.6°C 52.0°F11.1°C 70% 1.3 mph S2.1 kmh S 2.2 mph3.5 kmh 30.08 in1018.6 mb 0.00 in0.0 mm 0.00 in0.0 mm 0.00 in0.0 mm
04:45 AM 62.8°F17.1°C 51.3°F10.7°C 66% 1.8 mph S2.9 kmh S 3.1 mph5.0 kmh 30.08 in1018.6 mb 0.00 in0.0 mm 0.00 in0.0 mm 0.00 in0.0 mm
04:30 AM 61.5°F16.4°C 51.7°F10.9°C 70% 1.6 mph SSE2.6 kmh SSE 3.1 mph5.0 kmh 30.08 in1018.6 mb 0.00 in0.0 mm 0.00 in0.0 mm 0.00 in0.0 mm
04:15 AM 61.3°F16.3°C 51.1°F10.6°C 69% 1.3 mph SE2.1 kmh SE 1.6 mph2.6 kmh 30.08 in1018.6 mb 0.00 in0.0 mm 0.00 in0.0 mm 0.00 in0.0 mm
04:00 AM 61.9°F16.6°C 51.2°F10.7°C 68% 2.6 mph SE4.2 kmh SE 6.0 mph9.7 kmh 30.07 in1018.3 mb 0.00 in0.0 mm 0.00 in0.0 mm 0.00 in0.0 mm
03:45 AM 61.7°F16.5°C 51.4°F10.8°C 69% 3.2 mph E5.1 kmh E 6.0 mph9.7 kmh 30.07 in1018.3 mb 0.00 in0.0 mm 0.00 in0.0 mm 0.00 in0.0 mm
03:30 AM 61.5°F16.4°C 52.0°F11.1°C 71% 2.2 mph SE3.5 kmh SE 3.8 mph6.1 kmh 30.07 in1018.3 mb 0.00 in0.0 mm 0.00 in0.0 mm 0.00 in0.0 mm
03:15 AM 60.8°F16.0°C 52.1°F11.2°C 73% 1.0 mph SE1.6 kmh SE 1.6 mph2.6 kmh 30.07 in1018.3 mb 0.00 in0.0 mm 0.00 in0.0 mm 0.00 in0.0 mm
03:00 AM 61.2°F16.2°C 52.1°F11.2°C 72% 1.7 mph SSE2.7 kmh SSE 3.1 mph5.0 kmh 30.07 in1018.3 mb 0.00 in0.0 mm 0.00 in0.0 mm 0.00 in0.0 mm
02:45 AM 61.7°F16.5°C 52.2°F11.2°C 71% 2.0 mph E3.2 kmh E 4.5 mph7.2 kmh 30.07 in1018.3 mb 0.00 in0.0 mm 0.00 in0.0 mm 0.00 in0.0 mm
02:30 AM 61.7°F16.5°C 52.6°F11.4°C 72% 1.2 mph SE1.9 kmh SE 1.6 mph2.6 kmh 30.07 in1018.3 mb 0.00 in0.0 mm 0.00 in0.0 mm 0.00 in0.0 mm
02:15 AM 61.3°F16.3°C 52.3°F11.3°C 72% 1.4 mph ESE2.3 kmh ESE 3.1 mph5.0 kmh 30.07 in1018.3 mb 0.00 in0.0 mm 0.00 in0.0 mm 0.00 in0.0 mm
01:15 AM 62.4°F16.9°C 52.9°F11.6°C 71% 1.3 mph E2.1 kmh E 2.2 mph3.5 kmh 30.07 in1018.3 mb 0.00 in0.0 mm 0.00 in0.0 mm 0.00 in0.0 mm
01:00 AM 63.0°F17.2°C 53.4°F11.9°C 71% 1.7 mph SE2.7 kmh SE 3.8 mph6.1 kmh 30.07 in1018.3 mb 0.00 in0.0 mm 0.00 in0.0 mm 0.00 in0.0 mm
12:45 AM 62.6°F17.0°C 53.8°F12.1°C 73% 2.3 mph SE3.7 kmh SE 3.8 mph6.1 kmh 30.08 in1018.6 mb 0.00 in0.0 mm 0.00 in0.0 mm 0.00 in0.0 mm
12:30 AM 62.1°F16.7°C 54.1°F12.3°C 75% 1.5 mph SE2.4 kmh SE 2.2 mph3.5 kmh 30.08 in1018.6 mb 0.00 in0.0 mm 0.00 in0.0 mm 0.00 in0.0 mm
12:15 AM 63.3°F17.4°C 54.5°F12.5°C 73% 1.4 mph ESE2.3 kmh ESE 1.6 mph2.6 kmh 30.08 in1018.6 mb 0.00 in0.0 mm 0.00 in0.0 mm 0.00 in0.0 mm
12:00 AM 63.5°F17.5°C 54.7°F12.6°C 73% 2.7 mph E4.3 kmh E 3.8 mph6.1 kmh 30.07 in1018.3 mb 0.00 in0.0 mm 0.00 in0.0 mm 0.00 in0.0 mm